Terminal Aerodrome Forecast
Issued by NWS Sterling, VA

Home | Current Version | Previous Version | Text Only | Print | Product List | Glossary On
Versions: 1 2 3 4 5 6 7 8 9 10 11 12 13 14 15 16 17 18 19 20 21 22 23
000
FTUS41 KLWX 211100 RRA
TAFIAD
TAF
KIAD 211141Z 2112/2218 00000KT P6SM SCT250
     FM211700 25006KT P6SM SCT200
     FM211900 25009KT P6SM BKN060
     FM220300 29005KT P6SM BKN080
     FM221000 32012G18KT P6SM SCT200=

USA.gov is the U.S. government's official web portal to all federal, state and local government web resources and services.